Time;durP1;ratioP1;P1;durP2;ratioP2;P2;SDS_P1;SDS_P2;PMS_P1;PMS_P2;Temp;Humidity;BMP_temperature;BMP_pressure;BME280_temperature;BME280_humidity;BME280_pressure;Samples;Min_cycle;Max_cycle;Signal;HPM_P1;HPM_P2
2023/07/30 00:00:20;;;;;;;;;;;21.20;69.90;;;;;;5000178;28;906;-72
2023/07/30 00:02:45;;;;;;;;;;;21.20;69.90;;;;;;5004148;28;1275;-74
2023/07/30 00:05:11;;;;;;;;;;;21.20;69.90;;;;;;5001750;28;1003;-74
2023/07/30 00:07:36;;;;;;;;;;;21.20;69.90;;;;;;5000147;28;1057;-74
2023/07/30 00:10:02;;;;;;;;;;;21.20;69.90;;;;;;5003176;28;872;-74
2023/07/30 00:12:27;;;;;;;;;;;21.20;69.90;;;;;;4990699;28;1894;-74
2023/07/30 00:14:53;;;;;;;;;;;21.20;69.90;;;;;;5003093;28;849;-73
2023/07/30 00:17:18;;;;;;;;;;;21.20;69.90;;;;;;5001188;28;1572;-73
2023/07/30 00:19:44;;;;;;;;;;;21.20;69.90;;;;;;5001884;28;1299;-73
2023/07/30 00:22:09;;;;;;;;;;;21.20;69.90;;;;;;4993265;28;1275;-73
2023/07/30 00:24:35;;;;;;;;;;;21.20;69.90;;;;;;5000454;28;1027;-73
2023/07/30 00:27:00;;;;;;;;;;;21.20;69.90;;;;;;5001407;28;809;-73
2023/07/30 00:29:25;;;;;;;;;;;21.20;69.90;;;;;;5004711;28;917;-73
2023/07/30 00:31:51;;;;;;;;;;;21.20;69.90;;;;;;5002982;28;1969;-73
2023/07/30 00:34:16;;;;;;;;;;;21.20;69.90;;;;;;5004618;28;928;-73
2023/07/30 00:36:42;;;;;;;;;;;21.20;69.90;;;;;;5006777;28;940;-73
2023/07/30 00:39:10;;;;;;;;;;;21.20;69.90;;;;;;5001910;28;876;-73
2023/07/30 00:41:36;;;;;;;;;;;21.20;69.90;;;;;;5003353;28;1331;-73
2023/07/30 00:44:01;;;;;;;;;;;21.20;69.90;;;;;;5000333;28;865;-74
2023/07/30 00:46:27;;;;;;;;;;;21.20;69.90;;;;;;5001964;28;871;-74
2023/07/30 00:48:52;;;;;;;;;;;21.20;69.90;;;;;;4977024;28;1402;-74
2023/07/30 00:51:18;;;;;;;;;;;21.20;69.90;;;;;;4985808;28;1894;-74
2023/07/30 00:53:43;;;;;;;;;;;21.20;69.90;;;;;;4997614;28;1401;-73
2023/07/30 00:56:09;;;;;;;;;;;21.20;69.80;;;;;;5005144;28;1018;-73
2023/07/30 00:58:34;;;;;;;;;;;21.20;69.90;;;;;;4997882;28;879;-74
2023/07/30 01:01:00;;;;;;;;;;;21.20;69.90;;;;;;5002228;28;824;-71
2023/07/30 01:03:25;;;;;;;;;;;21.20;69.80;;;;;;4989381;28;1264;-71
2023/07/30 01:05:50;;;;;;;;;;;21.20;69.90;;;;;;4999724;28;1082;-72
2023/07/30 01:08:16;;;;;;;;;;;21.20;69.90;;;;;;4999378;28;1272;-70
2023/07/30 01:10:41;;;;;;;;;;;21.20;69.90;;;;;;4997937;28;915;-71
2023/07/30 01:13:07;;;;;;;;;;;21.20;69.90;;;;;;4986761;28;1899;-72
2023/07/30 01:15:33;;;;;;;;;;;21.20;69.90;;;;;;5002260;28;903;-73
2023/07/30 01:17:58;;;;;;;;;;;21.20;69.90;;;;;;4997829;28;896;-73
2023/07/30 01:20:23;;;;;;;;;;;21.20;69.90;;;;;;4990832;28;1404;-72
2023/07/30 01:22:49;;;;;;;;;;;21.20;69.90;;;;;;5000716;28;1261;-72
2023/07/30 01:25:15;;;;;;;;;;;21.20;69.90;;;;;;5001770;28;888;-72
2023/07/30 01:27:43;;;;;;;;;;;21.20;69.90;;;;;;4996059;28;1367;-72
2023/07/30 01:30:19;;;;;;;;;;;21.20;69.90;;;;;;5000129;28;1035;-73
2023/07/30 01:32:44;;;;;;;;;;;21.20;69.90;;;;;;4996677;28;1906;-73
2023/07/30 01:35:10;;;;;;;;;;;21.20;69.90;;;;;;4985637;28;808;-73
2023/07/30 01:37:35;;;;;;;;;;;21.20;69.90;;;;;;4998184;28;801;-73
2023/07/30 01:40:01;;;;;;;;;;;21.20;69.90;;;;;;4983345;28;843;-73
2023/07/30 01:42:29;;;;;;;;;;;21.20;69.90;;;;;;4998693;28;1407;-74
2023/07/30 01:44:55;;;;;;;;;;;21.20;69.90;;;;;;4985169;28;1031;-73
2023/07/30 01:47:20;;;;;;;;;;;21.20;69.90;;;;;;4998500;28;829;-73
2023/07/30 01:49:46;;;;;;;;;;;21.20;69.90;;;;;;4997790;28;919;-74
2023/07/30 01:52:11;;;;;;;;;;;21.20;69.90;;;;;;5000873;28;1902;-73
2023/07/30 01:54:37;;;;;;;;;;;21.20;69.90;;;;;;5001479;28;844;-72
2023/07/30 01:57:02;;;;;;;;;;;21.20;69.90;;;;;;5001283;28;943;-71
2023/07/30 01:59:28;;;;;;;;;;;21.20;69.90;;;;;;4997746;28;812;-71
2023/07/30 02:01:53;;;;;;;;;;;21.20;69.90;;;;;;4997677;28;1289;-73
2023/07/30 02:04:19;;;;;;;;;;;21.20;69.90;;;;;;5002129;28;1066;-72
2023/07/30 02:06:44;;;;;;;;;;;21.20;69.90;;;;;;5000503;28;1367;-73
2023/07/30 02:09:10;;;;;;;;;;;21.20;69.90;;;;;;5001371;28;1003;-73
2023/07/30 02:11:35;;;;;;;;;;;21.20;69.90;;;;;;5001944;28;1911;-73
2023/07/30 02:14:00;;;;;;;;;;;21.20;69.90;;;;;;5001173;28;908;-72
2023/07/30 02:16:26;;;;;;;;;;;21.20;69.90;;;;;;5000088;28;1042;-72
2023/07/30 02:18:51;;;;;;;;;;;21.20;69.90;;;;;;4999821;28;1351;-71
2023/07/30 02:21:17;;;;;;;;;;;21.20;69.90;;;;;;4999284;28;1345;-72
2023/07/30 02:23:42;;;;;;;;;;;21.20;69.90;;;;;;5002044;28;1375;-72
2023/07/30 02:26:08;;;;;;;;;;;21.20;69.90;;;;;;5001555;28;1358;-72
2023/07/30 02:28:33;;;;;;;;;;;21.20;69.90;;;;;;5006228;28;1419;-71
2023/07/30 02:30:58;;;;;;;;;;;21.20;69.90;;;;;;5003309;28;1957;-72
2023/07/30 02:33:24;;;;;;;;;;;21.20;69.90;;;;;;5002840;28;1390;-72
2023/07/30 02:35:49;;;;;;;;;;;21.20;69.90;;;;;;5007377;28;1353;-72
2023/07/30 02:38:15;;;;;;;;;;;21.20;69.90;;;;;;5001996;28;1343;-73
2023/07/30 02:40:40;;;;;;;;;;;21.20;69.90;;;;;;4998322;28;882;-72
2023/07/30 02:43:06;;;;;;;;;;;21.20;69.90;;;;;;4999370;28;1259;-72
2023/07/30 02:45:31;;;;;;;;;;;21.20;69.90;;;;;;4997672;28;1152;-72
2023/07/30 02:47:57;;;;;;;;;;;21.20;69.90;;;;;;4998115;28;862;-71
2023/07/30 02:50:22;;;;;;;;;;;21.20;69.90;;;;;;5000028;28;836;-72
2023/07/30 02:52:48;;;;;;;;;;;21.20;69.90;;;;;;5000166;28;2040;-72
2023/07/30 02:55:13;;;;;;;;;;;21.20;69.90;;;;;;4999334;28;829;-72
2023/07/30 02:57:38;;;;;;;;;;;21.20;69.90;;;;;;4998882;28;920;-72
2023/07/30 03:00:04;;;;;;;;;;;21.20;70.00;;;;;;4984398;28;908;-73
2023/07/30 03:02:30;;;;;;;;;;;21.20;69.90;;;;;;4983196;28;1275;-73
2023/07/30 03:04:55;;;;;;;;;;;21.20;69.90;;;;;;4999608;28;969;-73
2023/07/30 03:07:21;;;;;;;;;;;21.20;69.90;;;;;;5001988;28;1348;-72
2023/07/30 03:09:46;;;;;;;;;;;21.20;69.90;;;;;;4998501;28;795;-72
2023/07/30 03:12:12;;;;;;;;;;;21.20;69.90;;;;;;4985132;28;1915;-72
2023/07/30 03:14:37;;;;;;;;;;;21.20;69.90;;;;;;4996549;28;1030;-72
2023/07/30 03:17:04;;;;;;;;;;;21.20;69.90;;;;;;4998406;28;801;-72
2023/07/30 03:19:30;;;;;;;;;;;21.20;69.90;;;;;;4998937;28;896;-72
2023/07/30 03:21:55;;;;;;;;;;;21.20;69.90;;;;;;4999748;28;1256;-73
2023/07/30 03:24:21;;;;;;;;;;;21.20;69.90;;;;;;4996599;28;886;-72
2023/07/30 03:26:46;;;;;;;;;;;21.20;69.90;;;;;;4997673;28;868;-73
2023/07/30 03:29:12;;;;;;;;;;;21.20;69.90;;;;;;4996375;28;956;-73
2023/07/30 03:31:37;;;;;;;;;;;21.20;69.90;;;;;;4986451;28;1910;-72
2023/07/30 03:34:03;;;;;;;;;;;21.20;69.90;;;;;;4980123;28;1331;-72
2023/07/30 03:36:28;;;;;;;;;;;21.20;69.90;;;;;;4998598;28;923;-71
2023/07/30 03:38:54;;;;;;;;;;;21.20;70.00;;;;;;4999120;28;892;-72
2023/07/30 03:41:19;;;;;;;;;;;21.20;69.90;;;;;;4999048;28;1267;-72
2023/07/30 03:43:44;;;;;;;;;;;21.20;69.90;;;;;;4999000;28;1295;-72
2023/07/30 03:46:10;;;;;;;;;;;21.20;69.90;;;;;;4999088;28;950;-72
2023/07/30 03:48:35;;;;;;;;;;;21.20;70.00;;;;;;4999871;28;832;-72
2023/07/30 03:51:02;;;;;;;;;;;21.20;70.00;;;;;;4996751;28;1910;-72
2023/07/30 03:53:28;;;;;;;;;;;21.20;70.00;;;;;;4995046;28;1214;-72
2023/07/30 03:55:53;;;;;;;;;;;21.20;70.00;;;;;;4995367;28;1223;-72
2023/07/30 03:58:19;;;;;;;;;;;21.20;70.00;;;;;;4984528;28;1290;-72
2023/07/30 04:00:44;;;;;;;;;;;21.20;70.70;;;;;;4999030;28;893;-73
2023/07/30 04:03:10;;;;;;;;;;;21.20;69.90;;;;;;5000147;28;1280;-72
2023/07/30 04:05:35;;;;;;;;;;;21.20;70.10;;;;;;4999782;28;873;-72
2023/07/30 04:08:00;;;;;;;;;;;21.20;69.90;;;;;;5006405;28;1294;-71
2023/07/30 04:10:26;;;;;;;;;;;21.20;70.00;;;;;;5003382;28;922;-72
2023/07/30 04:12:51;;;;;;;;;;;21.20;69.90;;;;;;5002123;28;1906;-72
2023/07/30 04:15:17;;;;;;;;;;;21.20;70.00;;;;;;5003655;28;2142;-73
2023/07/30 04:17:42;;;;;;;;;;;21.20;70.00;;;;;;5000903;28;1876;-74
2023/07/30 04:20:09;;;;;;;;;;;21.20;70.00;;;;;;5004032;28;1285;-73
2023/07/30 04:22:35;;;;;;;;;;;21.20;70.00;;;;;;5002662;28;1336;-74
2023/07/30 04:25:00;;;;;;;;;;;21.20;70.00;;;;;;4989159;28;975;-73
2023/07/30 04:27:26;;;;;;;;;;;21.20;70.70;;;;;;5004790;28;925;-74
2023/07/30 04:29:51;;;;;;;;;;;21.20;70.00;;;;;;4999771;28;1107;-73
2023/07/30 04:32:17;;;;;;;;;;;21.20;69.90;;;;;;4999111;28;1894;-73
2023/07/30 04:34:42;;;;;;;;;;;21.20;69.90;;;;;;5001078;28;1413;-74
2023/07/30 04:37:08;;;;;;;;;;;21.20;70.00;;;;;;5001215;28;828;-74
2023/07/30 04:39:34;;;;;;;;;;;21.20;70.00;;;;;;5000830;28;856;-74
2023/07/30 04:41:59;;;;;;;;;;;21.20;70.00;;;;;;4987584;28;1626;-73
2023/07/30 04:44:25;;;;;;;;;;;21.20;70.00;;;;;;4993297;28;1661;-71
2023/07/30 04:46:50;;;;;;;;;;;21.20;69.90;;;;;;4998845;28;887;-73
2023/07/30 04:49:16;;;;;;;;;;;21.20;70.00;;;;;;5003290;28;888;-73
2023/07/30 04:51:41;;;;;;;;;;;21.20;70.00;;;;;;4997946;28;1914;-72
2023/07/30 04:54:07;;;;;;;;;;;21.20;69.90;;;;;;4999599;28;872;-73
2023/07/30 04:56:32;;;;;;;;;;;21.20;70.00;;;;;;5001724;28;839;-71
2023/07/30 04:58:57;;;;;;;;;;;21.20;70.00;;;;;;4998278;28;948;-73
2023/07/30 05:01:26;;;;;;;;;;;21.20;70.00;;;;;;4995366;28;1439;-73
2023/07/30 05:03:51;;;;;;;;;;;21.20;70.00;;;;;;4985176;28;1375;-72
2023/07/30 05:06:17;;;;;;;;;;;21.20;70.00;;;;;;4999332;28;877;-73
2023/07/30 05:08:42;;;;;;;;;;;21.20;69.90;;;;;;4998386;28;1255;-72
2023/07/30 05:11:08;;;;;;;;;;;21.20;69.90;;;;;;5005607;28;1898;-72
2023/07/30 05:13:33;;;;;;;;;;;21.20;70.00;;;;;;4999514;28;1268;-73
2023/07/30 05:15:59;;;;;;;;;;;21.20;69.90;;;;;;4998691;28;932;-73
2023/07/30 05:18:24;;;;;;;;;;;21.20;69.90;;;;;;4997852;28;1292;-72
2023/07/30 05:20:50;;;;;;;;;;;21.20;69.90;;;;;;4995941;28;1175;-73
2023/07/30 05:23:15;;;;;;;;;;;21.20;69.90;;;;;;4994535;28;1208;-73
2023/07/30 05:25:41;;;;;;;;;;;21.20;69.90;;;;;;4998048;28;831;-73
2023/07/30 05:28:06;;;;;;;;;;;21.20;70.00;;;;;;4999279;28;1253;-73
2023/07/30 05:30:31;;;;;;;;;;;21.20;70.00;;;;;;5001003;28;888;-73
2023/07/30 05:32:57;;;;;;;;;;;21.20;69.90;;;;;;4983479;28;1946;-73
2023/07/30 05:35:22;;;;;;;;;;;21.20;70.00;;;;;;5001932;28;846;-73
2023/07/30 05:37:48;;;;;;;;;;;21.20;69.90;;;;;;5000668;28;833;-73
2023/07/30 05:40:13;;;;;;;;;;;21.20;70.00;;;;;;4999201;28;797;-73
2023/07/30 05:42:39;;;;;;;;;;;21.20;70.00;;;;;;5000066;28;1232;-73
2023/07/30 05:45:04;;;;;;;;;;;21.20;69.90;;;;;;4986791;28;1157;-73
2023/07/30 05:47:30;;;;;;;;;;;21.20;70.00;;;;;;4998560;28;827;-73
2023/07/30 05:49:55;;;;;;;;;;;21.20;69.90;;;;;;4994518;28;931;-72
2023/07/30 05:52:21;;;;;;;;;;;21.20;70.00;;;;;;4998610;28;1906;-73
2023/07/30 05:54:46;;;;;;;;;;;21.20;70.00;;;;;;5001917;28;832;-73
2023/07/30 05:57:12;;;;;;;;;;;21.20;69.90;;;;;;4999917;28;931;-72
2023/07/30 05:59:37;;;;;;;;;;;21.20;69.90;;;;;;5001453;28;938;-73
2023/07/30 06:02:03;;;;;;;;;;;21.20;69.90;;;;;;4989398;28;1300;-73
2023/07/30 06:04:28;;;;;;;;;;;21.20;70.00;;;;;;4998349;28;817;-72
2023/07/30 06:06:54;;;;;;;;;;;21.20;70.00;;;;;;4999298;28;1379;-71
2023/07/30 06:09:19;;;;;;;;;;;21.20;69.90;;;;;;4981969;28;1150;-73
2023/07/30 06:11:45;;;;;;;;;;;21.20;69.90;;;;;;4998792;28;1907;-73
2023/07/30 06:14:10;;;;;;;;;;;21.20;69.90;;;;;;4999490;28;1094;-72
2023/07/30 06:16:36;;;;;;;;;;;21.20;69.90;;;;;;4999992;28;922;-72
2023/07/30 06:19:01;;;;;;;;;;;21.20;69.90;;;;;;4998110;28;1381;-72
2023/07/30 06:21:27;;;;;;;;;;;21.20;70.00;;;;;;4997673;28;869;-72
2023/07/30 06:23:52;;;;;;;;;;;21.20;69.90;;;;;;4996507;28;1352;-72
2023/07/30 06:26:18;;;;;;;;;;;21.20;69.90;;;;;;5000747;28;1081;-71
2023/07/30 06:28:43;;;;;;;;;;;21.20;69.90;;;;;;4999728;28;1285;-71
2023/07/30 06:31:09;;;;;;;;;;;21.20;69.90;;;;;;4999886;28;1906;-72
2023/07/30 06:33:34;;;;;;;;;;;21.20;70.00;;;;;;4993848;28;1245;-72
2023/07/30 06:36:00;;;;;;;;;;;21.20;70.00;;;;;;4987796;28;1346;-71
2023/07/30 06:38:25;;;;;;;;;;;21.20;70.00;;;;;;4997932;28;983;-72
2023/07/30 06:40:51;;;;;;;;;;;21.20;70.00;;;;;;4995400;28;2110;-71
2023/07/30 06:43:16;;;;;;;;;;;21.20;70.00;;;;;;5001128;28;2081;-71
2023/07/30 06:45:42;;;;;;;;;;;21.20;70.00;;;;;;4998388;28;1020;-71
2023/07/30 06:48:07;;;;;;;;;;;21.20;70.00;;;;;;4997030;28;1506;-71
2023/07/30 06:50:33;;;;;;;;;;;21.20;70.00;;;;;;4998841;28;1573;-71
2023/07/30 06:52:58;;;;;;;;;;;21.20;70.00;;;;;;4998089;28;1926;-71
2023/07/30 06:55:24;;;;;;;;;;;21.20;70.00;;;;;;4996885;28;879;-72
2023/07/30 06:57:50;;;;;;;;;;;21.20;70.00;;;;;;4996994;28;907;-71
2023/07/30 07:00:21;;;;;;;;;;;21.20;70.00;;;;;;4996597;28;1061;-71
2023/07/30 07:02:49;;;;;;;;;;;21.20;70.00;;;;;;5000355;28;1411;-73
2023/07/30 07:05:15;;;;;;;;;;;21.20;70.00;;;;;;5002465;28;1055;-71
2023/07/30 07:07:40;;;;;;;;;;;21.20;70.00;;;;;;4983669;28;844;-72
2023/07/30 07:10:06;;;;;;;;;;;21.20;70.00;;;;;;4997664;28;875;-71
2023/07/30 07:12:32;;;;;;;;;;;21.20;70.00;;;;;;4997782;28;1894;-71
2023/07/30 07:14:58;;;;;;;;;;;21.20;70.00;;;;;;5000077;28;785;-72
2023/07/30 07:17:24;;;;;;;;;;;21.20;70.00;;;;;;5000130;28;911;-72
2023/07/30 07:19:49;;;;;;;;;;;21.20;70.00;;;;;;4983120;28;1417;-72
2023/07/30 07:22:17;;;;;;;;;;;21.20;70.00;;;;;;5003926;28;1272;-71
2023/07/30 07:24:43;;;;;;;;;;;21.20;70.00;;;;;;5001115;28;880;-71
2023/07/30 07:27:09;;;;;;;;;;;21.20;70.00;;;;;;4999777;28;832;-71
2023/07/30 07:29:34;;;;;;;;;;;21.20;70.00;;;;;;4990888;28;1148;-72
2023/07/30 07:32:00;;;;;;;;;;;21.20;70.00;;;;;;4985309;28;1930;-72
2023/07/30 07:34:25;;;;;;;;;;;21.20;70.00;;;;;;5000729;28;863;-71
2023/07/30 07:36:51;;;;;;;;;;;21.20;70.00;;;;;;4997281;28;824;-71
2023/07/30 07:39:16;;;;;;;;;;;21.20;70.00;;;;;;5003672;28;916;-72
2023/07/30 07:41:41;;;;;;;;;;;21.20;70.00;;;;;;5000861;28;1249;-72
2023/07/30 07:44:07;;;;;;;;;;;21.20;70.00;;;;;;5003617;28;842;-71
2023/07/30 07:46:32;;;;;;;;;;;21.20;70.00;;;;;;5002817;28;1067;-71
2023/07/30 07:48:58;;;;;;;;;;;21.20;70.00;;;;;;4989851;28;898;-72
2023/07/30 07:51:25;;;;;;;;;;;21.20;70.00;;;;;;5007122;28;1902;-71
2023/07/30 07:53:50;;;;;;;;;;;21.20;70.00;;;;;;5001456;28;1370;-72
2023/07/30 07:56:16;;;;;;;;;;;21.20;70.00;;;;;;5007569;28;857;-72
2023/07/30 07:58:42;;;;;;;;;;;21.20;70.00;;;;;;5001734;28;935;-73
2023/07/30 08:01:08;;;;;;;;;;;21.20;70.00;;;;;;5001333;28;931;-72
2023/07/30 08:03:33;;;;;;;;;;;21.20;70.00;;;;;;5003516;28;1266;-73
2023/07/30 08:05:59;;;;;;;;;;;21.20;70.00;;;;;;4999747;28;1231;-73
2023/07/30 08:08:25;;;;;;;;;;;21.20;70.00;;;;;;5001088;28;915;-72
2023/07/30 08:10:50;;;;;;;;;;;21.20;70.00;;;;;;4988170;28;896;-71
2023/07/30 08:13:16;;;;;;;;;;;21.20;70.00;;;;;;5002206;28;1907;-73
2023/07/30 08:15:41;;;;;;;;;;;21.20;70.00;;;;;;5000655;28;956;-73
2023/07/30 08:18:07;;;;;;;;;;;21.20;70.00;;;;;;5000159;28;935;-73
2023/07/30 08:20:32;;;;;;;;;;;21.20;70.00;;;;;;4997522;28;2067;-73
2023/07/30 08:22:58;;;;;;;;;;;21.20;70.00;;;;;;5001627;28;1279;-73
2023/07/30 08:25:23;;;;;;;;;;;21.20;70.00;;;;;;5000887;28;1407;-72
2023/07/30 08:27:49;;;;;;;;;;;21.20;70.00;;;;;;4988293;28;1009;-73
2023/07/30 08:30:14;;;;;;;;;;;21.20;69.90;;;;;;4990469;28;1402;-72
2023/07/30 08:32:41;;;;;;;;;;;21.20;70.00;;;;;;5001583;28;1971;-73
2023/07/30 08:35:07;;;;;;;;;;;21.20;69.90;;;;;;4987443;28;845;-72
2023/07/30 08:37:32;;;;;;;;;;;21.20;70.00;;;;;;5003306;28;1523;-73
2023/07/30 08:39:58;;;;;;;;;;;21.20;70.00;;;;;;4998980;28;924;-73
2023/07/30 08:42:23;;;;;;;;;;;21.20;70.00;;;;;;5001126;28;1309;-73
2023/07/30 08:44:49;;;;;;;;;;;21.20;70.00;;;;;;4987487;28;1419;-73
2023/07/30 08:47:14;;;;;;;;;;;21.20;70.00;;;;;;5001512;28;1015;-71
2023/07/30 08:49:40;;;;;;;;;;;21.20;70.00;;;;;;4998487;28;883;-72
2023/07/30 08:52:07;;;;;;;;;;;21.20;70.00;;;;;;5001717;28;1914;-71
2023/07/30 08:54:33;;;;;;;;;;;21.20;70.00;;;;;;5000772;28;873;-71
2023/07/30 08:56:58;;;;;;;;;;;21.20;70.00;;;;;;4986962;28;900;-71
2023/07/30 08:59:24;;;;;;;;;;;21.20;70.00;;;;;;5000588;28;932;-71
2023/07/30 09:01:50;;;;;;;;;;;21.20;70.00;;;;;;5000421;28;1274;-71
2023/07/30 09:04:16;;;;;;;;;;;21.20;70.00;;;;;;4996750;28;908;-72
2023/07/30 09:06:41;;;;;;;;;;;21.20;70.00;;;;;;4989241;28;1278;-71
2023/07/30 09:09:07;;;;;;;;;;;21.20;70.00;;;;;;5004763;28;944;-71
2023/07/30 09:11:32;;;;;;;;;;;21.20;70.00;;;;;;4997344;28;1914;-72
2023/07/30 09:14:01;;;;;;;;;;;21.20;70.00;;;;;;5001770;28;1194;-73
2023/07/30 09:16:26;;;;;;;;;;;21.20;70.00;;;;;;4984230;28;901;-73
2023/07/30 09:18:53;;;;;;;;;;;21.20;70.00;;;;;;4995991;28;1375;-73
2023/07/30 09:21:19;;;;;;;;;;;21.20;70.80;;;;;;5000108;28;847;-73
2023/07/30 09:23:47;;;;;;;;;;;21.20;70.00;;;;;;4999721;28;1249;-73
2023/07/30 09:26:13;;;;;;;;;;;21.20;70.00;;;;;;4997785;28;832;-73
2023/07/30 09:28:39;;;;;;;;;;;21.20;70.00;;;;;;4999929;28;2184;-72
2023/07/30 09:31:05;;;;;;;;;;;21.20;70.00;;;;;;4987736;28;1979;-71
2023/07/30 09:33:32;;;;;;;;;;;21.20;69.80;;;;;;4982215;28;1847;-70
2023/07/30 09:35:57;;;;;;;;;;;21.20;69.70;;;;;;5000606;28;1545;-71
2023/07/30 09:38:23;;;;;;;;;;;21.20;69.50;;;;;;4987230;28;1361;-71
2023/07/30 09:40:49;;;;;;;;;;;21.30;69.40;;;;;;4986957;28;1689;-71
2023/07/30 09:43:15;;;;;;;;;;;21.30;69.50;;;;;;4986748;28;1465;-71
2023/07/30 09:45:40;;;;;;;;;;;21.30;69.60;;;;;;5002461;28;1242;-70
2023/07/30 09:48:05;;;;;;;;;;;21.40;70.30;;;;;;4977857;28;1051;-70
2023/07/30 09:50:31;;;;;;;;;;;21.40;69.50;;;;;;4994636;28;1019;-70
2023/07/30 09:52:58;;;;;;;;;;;21.40;69.20;;;;;;4990054;28;1906;-70
2023/07/30 09:55:23;;;;;;;;;;;21.40;69.00;;;;;;4998432;28;1101;-71
2023/07/30 09:57:49;;;;;;;;;;;21.40;68.50;;;;;;4995274;28;1495;-71
2023/07/30 10:00:14;;;;;;;;;;;21.40;68.60;;;;;;4998341;28;1026;-71
2023/07/30 10:02:41;;;;;;;;;;;21.40;69.20;;;;;;5000817;28;1390;-71
2023/07/30 10:05:12;;;;;;;;;;;21.40;68.70;;;;;;4984596;28;1529;-71
2023/07/30 10:07:38;;;;;;;;;;;21.40;68.70;;;;;;4986728;28;1425;-71
2023/07/30 10:10:04;;;;;;;;;;;21.40;68.60;;;;;;4996041;28;1598;-70
2023/07/30 10:12:31;;;;;;;;;;;21.40;68.60;;;;;;4998552;28;1898;-70
2023/07/30 10:14:56;;;;;;;;;;;21.40;68.90;;;;;;4999604;28;1438;-71
2023/07/30 10:17:22;;;;;;;;;;;21.40;68.90;;;;;;5001280;28;1211;-70
2023/07/30 10:19:50;;;;;;;;;;;21.50;69.00;;;;;;4999744;28;1257;-71
2023/07/30 10:22:20;;;;;;;;;;;21.50;68.80;;;;;;4999848;28;1668;-71
2023/07/30 10:25:11;;;;;;;;;;;21.50;68.50;;;;;;5000487;28;1506;-70
2023/07/30 10:27:38;;;;;;;;;;;21.50;68.30;;;;;;4998825;28;1474;-70
2023/07/30 10:30:09;;;;;;;;;;;21.50;68.10;;;;;;4996719;28;1378;-70
2023/07/30 10:32:38;;;;;;;;;;;21.50;67.50;;;;;;4996858;28;1914;-70
2023/07/30 10:35:04;;;;;;;;;;;21.50;67.00;;;;;;5000271;28;1413;-69
2023/07/30 10:37:29;;;;;;;;;;;21.50;67.00;;;;;;4998067;28;1128;-69
2023/07/30 10:39:55;;;;;;;;;;;21.50;66.60;;;;;;4995576;28;1344;-69
2023/07/30 10:42:20;;;;;;;;;;;21.50;66.50;;;;;;4997813;28;1324;-69
2023/07/30 10:44:46;;;;;;;;;;;21.50;66.50;;;;;;4999980;28;1511;-70
2023/07/30 10:47:11;;;;;;;;;;;21.50;66.30;;;;;;4999811;28;1463;-69
2023/07/30 10:49:40;;;;;;;;;;;21.50;66.10;;;;;;4997734;28;1441;-70
2023/07/30 10:52:06;;;;;;;;;;;21.50;66.30;;;;;;4998322;28;1930;-69
2023/07/30 10:54:35;;;;;;;;;;;21.60;66.40;;;;;;4999185;28;1484;-71
2023/07/30 10:57:00;;;;;;;;;;;21.60;66.10;;;;;;4983252;28;2012;-70
2023/07/30 10:59:25;;;;;;;;;;;21.60;66.10;;;;;;4980934;28;2280;-69
2023/07/30 11:01:51;;;;;;;;;;;21.60;66.50;;;;;;4998858;28;1414;-70
2023/07/30 11:04:18;;;;;;;;;;;21.60;66.60;;;;;;4998147;28;1547;-69
2023/07/30 11:06:47;;;;;;;;;;;21.60;66.20;;;;;;4997560;28;1479;-70
2023/07/30 11:09:23;;;;;;;;;;;21.60;66.30;;;;;;4996648;28;1440;-70
2023/07/30 11:11:48;;;;;;;;;;;21.60;65.90;;;;;;4992574;28;1907;-70
2023/07/30 11:14:14;;;;;;;;;;;21.60;65.70;;;;;;5000243;28;1232;-70
2023/07/30 11:16:46;;;;;;;;;;;21.60;65.70;;;;;;5002693;28;1419;-69
2023/07/30 11:19:14;;;;;;;;;;;21.60;65.60;;;;;;5000954;28;1303;-69
2023/07/30 11:21:44;;;;;;;;;;;21.70;64.90;;;;;;5002769;28;927;-69
2023/07/30 11:24:09;;;;;;;;;;;21.70;65.10;;;;;;4986189;28;1440;-70
2023/07/30 11:26:34;;;;;;;;;;;21.70;65.60;;;;;;5004156;28;1295;-70
2023/07/30 11:29:00;;;;;;;;;;;21.70;65.70;;;;;;4990108;28;1256;-70
2023/07/30 11:31:27;;;;;;;;;;;21.70;65.40;;;;;;5003394;28;1902;-70
2023/07/30 11:33:52;;;;;;;;;;;21.60;65.30;;;;;;5002743;28;1366;-71
2023/07/30 11:36:27;;;;;;;;;;;21.70;65.50;;;;;;5002530;28;918;-70
2023/07/30 11:38:55;;;;;;;;;;;21.70;65.70;;;;;;5002627;28;1274;-70
2023/07/30 11:41:23;;;;;;;;;;;21.70;65.50;;;;;;4990683;28;1227;-70
2023/07/30 11:43:48;;;;;;;;;;;21.70;65.20;;;;;;4995527;28;1376;-70
2023/07/30 11:46:17;;;;;;;;;;;21.70;64.50;;;;;;5000469;28;1289;-70
2023/07/30 11:48:43;;;;;;;;;;;21.70;64.40;;;;;;4999438;28;2126;-69
2023/07/30 11:51:21;;;;;;;;;;;21.70;64.70;;;;;;4985063;28;1977;-69
2023/07/30 11:53:51;;;;;;;;;;;21.70;64.30;;;;;;5003091;28;1665;-70
2023/07/30 11:56:18;;;;;;;;;;;21.70;64.40;;;;;;4985857;28;1483;-70
2023/07/30 11:58:43;;;;;;;;;;;21.70;64.50;;;;;;4999751;28;895;-70
2023/07/30 12:01:09;;;;;;;;;;;21.70;64.50;;;;;;4989116;28;887;-70
2023/07/30 12:03:34;;;;;;;;;;;21.70;64.10;;;;;;5003378;28;1227;-70
2023/07/30 12:06:04;;;;;;;;;;;21.70;64.00;;;;;;4999143;28;814;-70
2023/07/30 12:08:29;;;;;;;;;;;21.70;63.90;;;;;;5000276;28;1604;-70
2023/07/30 12:10:56;;;;;;;;;;;21.70;64.10;;;;;;4999132;28;1007;-69
2023/07/30 12:13:22;;;;;;;;;;;21.70;64.60;;;;;;4999099;28;1895;-71
2023/07/30 12:15:52;;;;;;;;;;;21.70;65.10;;;;;;5001709;28;876;-70
2023/07/30 12:18:17;;;;;;;;;;;21.70;65.30;;;;;;4986595;28;1285;-70
2023/07/30 12:20:43;;;;;;;;;;;21.70;64.70;;;;;;5001530;28;1007;-70
2023/07/30 12:23:08;;;;;;;;;;;21.70;63.60;;;;;;4996255;28;1268;-70
2023/07/30 12:25:37;;;;;;;;;;;21.70;63.40;;;;;;5002806;28;1209;-70
2023/07/30 12:28:03;;;;;;;;;;;21.70;63.10;;;;;;5000329;28;1343;-70
2023/07/30 12:30:28;;;;;;;;;;;21.70;63.10;;;;;;4999655;28;1002;-70
2023/07/30 12:32:54;;;;;;;;;;;21.70;62.30;;;;;;4999673;28;1972;-70
2023/07/30 12:35:20;;;;;;;;;;;21.70;62.00;;;;;;5003595;28;1250;-69
2023/07/30 12:37:45;;;;;;;;;;;21.70;62.20;;;;;;5002134;28;1307;-70
2023/07/30 12:40:11;;;;;;;;;;;21.70;62.40;;;;;;4986200;28;1263;-70
2023/07/30 12:42:36;;;;;;;;;;;21.70;62.70;;;;;;5001863;28;1293;-70
2023/07/30 12:45:02;;;;;;;;;;;21.70;62.40;;;;;;5000669;28;1213;-70
2023/07/30 12:47:27;;;;;;;;;;;21.70;62.40;;;;;;5003785;28;1228;-70
2023/07/30 12:49:53;;;;;;;;;;;21.70;62.50;;;;;;5005437;28;947;-70
2023/07/30 12:52:18;;;;;;;;;;;21.70;62.20;;;;;;4997572;28;1891;-70
2023/07/30 12:54:44;;;;;;;;;;;21.70;61.90;;;;;;5003164;28;1522;-70
2023/07/30 12:57:10;;;;;;;;;;;21.70;61.80;;;;;;4997616;28;888;-70
2023/07/30 12:59:36;;;;;;;;;;;21.70;61.30;;;;;;4998532;28;860;-70
2023/07/30 13:02:01;;;;;;;;;;;21.80;61.70;;;;;;5000288;28;1249;-70
2023/07/30 13:04:27;;;;;;;;;;;21.70;63.30;;;;;;5001029;28;1041;-70
2023/07/30 13:06:53;;;;;;;;;;;21.70;62.50;;;;;;4996001;28;829;-70
2023/07/30 13:09:18;;;;;;;;;;;21.70;62.30;;;;;;5000472;28;1860;-71
2023/07/30 13:11:44;;;;;;;;;;;21.70;62.90;;;;;;5002602;28;1930;-69
2023/07/30 13:14:09;;;;;;;;;;;21.70;62.80;;;;;;5000609;28;1410;-70
2023/07/30 13:16:35;;;;;;;;;;;21.70;62.60;;;;;;4989371;28;1338;-70
2023/07/30 13:19:00;;;;;;;;;;;21.70;62.10;;;;;;4985755;28;1397;-70
2023/07/30 13:21:26;;;;;;;;;;;21.70;61.80;;;;;;4997635;28;892;-70
2023/07/30 13:23:51;;;;;;;;;;;21.70;61.80;;;;;;5000060;28;1378;-70
2023/07/30 13:26:18;;;;;;;;;;;21.70;61.80;;;;;;4997596;28;837;-70
2023/07/30 13:28:43;;;;;;;;;;;21.70;62.10;;;;;;4999681;28;1256;-70
2023/07/30 13:31:10;;;;;;;;;;;21.70;62.00;;;;;;5000419;28;781;-70
2023/07/30 13:33:36;;;;;;;;;;;21.70;62.40;;;;;;4986928;28;1991;-70
2023/07/30 13:36:01;;;;;;;;;;;21.70;62.90;;;;;;4991956;28;1198;-70
2023/07/30 13:38:27;;;;;;;;;;;21.70;63.20;;;;;;5001146;28;880;-69
2023/07/30 13:40:53;;;;;;;;;;;21.70;62.80;;;;;;4999767;28;812;-69
2023/07/30 13:43:18;;;;;;;;;;;21.70;62.10;;;;;;4998755;28;1220;-69
2023/07/30 13:45:44;;;;;;;;;;;21.70;61.30;;;;;;4989883;28;865;-69
2023/07/30 13:48:09;;;;;;;;;;;21.70;60.80;;;;;;4997534;28;1285;-69
2023/07/30 13:50:35;;;;;;;;;;;21.70;61.40;;;;;;4999621;28;981;-69
2023/07/30 13:53:00;;;;;;;;;;;21.70;61.20;;;;;;5000935;28;1969;-69
2023/07/30 13:55:26;;;;;;;;;;;21.70;60.40;;;;;;4999502;28;875;-69
2023/07/30 13:57:51;;;;;;;;;;;21.70;60.90;;;;;;5002037;28;887;-69
2023/07/30 14:00:16;;;;;;;;;;;21.70;60.60;;;;;;5001519;28;934;-69
2023/07/30 14:02:42;;;;;;;;;;;21.70;62.00;;;;;;4998928;28;1301;-69
2023/07/30 14:05:11;;;;;;;;;;;21.70;62.00;;;;;;4995016;28;912;-69
2023/07/30 14:07:36;;;;;;;;;;;21.70;60.90;;;;;;4999225;28;928;-69
2023/07/30 14:10:02;;;;;;;;;;;21.60;62.00;;;;;;5003488;28;912;-70
2023/07/30 14:12:27;;;;;;;;;;;21.70;61.00;;;;;;5001694;28;1962;-70
2023/07/30 14:14:53;;;;;;;;;;;21.60;60.30;;;;;;4995241;28;848;-69
2023/07/30 14:17:18;;;;;;;;;;;21.60;59.80;;;;;;4997410;28;799;-69
2023/07/30 14:19:44;;;;;;;;;;;21.60;60.10;;;;;;4997261;28;1418;-69
2023/07/30 14:22:10;;;;;;;;;;;21.60;58.70;;;;;;4997844;28;2091;-69
2023/07/30 14:24:37;;;;;;;;;;;21.60;59.30;;;;;;4999000;28;1312;-69